Time,TemperatureF,DewpointF,PressureIn,WindDirection,WindDirectionDegrees,WindSpeedMPH,WindSpeedGustMPH,Humidity,HourlyPrecipIn,Conditions,Clouds,dailyrainin,SoftwareType,DateUTC
2013-04-02 00:12:00,55.0,48.0,30.11,WNW,290,10.0,18.0,76,-99.99,,,-99.99,,2013-04-02 07:12:00,
2013-04-02 00:22:00,55.0,48.0,30.11,WNW,290,10.0,18.0,76,-99.99,,,-99.99,,2013-04-02 07:22:00,
2013-04-02 00:32:00,55.0,48.0,30.11,WNW,290,10.0,18.0,76,-99.99,,,-99.99,,2013-04-02 07:32:00,
2013-04-02 00:42:00,55.0,48.0,30.11,WNW,290,10.0,16.0,76,-99.99,,,-99.99,,2013-04-02 07:42:00,
2013-04-02 00:52:00,55.0,48.0,30.11,WNW,290,10.0,16.0,76,-99.99,,,-99.99,,2013-04-02 07:52:00,
2013-04-02 01:13:00,55.0,46.0,30.12,WNW,290,9.0,17.0,71,-99.99,,,-99.99,,2013-04-02 08:13:00,
2013-04-02 01:22:00,55.0,46.0,30.12,WNW,290,9.0,17.0,71,-99.99,,,-99.99,,2013-04-02 08:22:00,
2013-04-02 01:32:00,55.0,46.0,30.12,WNW,290,9.0,17.0,71,-99.99,,,-99.99,,2013-04-02 08:32:00,
2013-04-02 01:42:00,55.0,46.0,30.13,WNW,290,15.0,23.0,71,-99.99,,,-99.99,,2013-04-02 08:42:00,
2013-04-02 01:52:00,55.0,46.0,30.13,WNW,290,15.0,23.0,71,-99.99,,,-99.99,,2013-04-02 08:52:00,
2013-04-02 02:12:00,55.0,46.0,30.14,WNW,290,7.0,16.0,71,-99.99,,,-99.99,,2013-04-02 09:12:00,
2013-04-02 02:22:00,55.0,46.0,30.14,WNW,290,7.0,16.0,71,-99.99,,,-99.99,,2013-04-02 09:22:00,
2013-04-02 02:32:00,55.0,46.0,30.14,WNW,290,7.0,16.0,71,-99.99,,,-99.99,,2013-04-02 09:32:00,
2013-04-02 02:43:00,55.0,46.0,30.14,West,280,8.0,22.0,71,-99.99,,,-99.99,,2013-04-02 09:43:00,
2013-04-02 02:52:00,55.0,46.0,30.14,West,280,8.0,22.0,71,-99.99,,,-99.99,,2013-04-02 09:52:00,
2013-04-02 03:13:00,54.0,46.0,30.14,West,280,9.0,23.0,76,-99.99,,,-99.99,,2013-04-02 10:13:00,
2013-04-02 03:23:00,54.0,46.0,30.14,West,280,9.0,23.0,76,-99.99,,,-99.99,,2013-04-02 10:23:00,
2013-04-02 03:33:00,54.0,46.0,30.14,West,280,9.0,23.0,76,-99.99,,,-99.99,,2013-04-02 10:33:00,
2013-04-02 03:42:00,55.0,46.0,30.13,WNW,290,16.0,25.0,71,-99.99,,,-99.99,,2013-04-02 10:42:00,
2013-04-02 03:52:00,55.0,46.0,30.13,WNW,290,16.0,25.0,71,-99.99,,,-99.99,,2013-04-02 10:52:00,
2013-04-02 04:22:00,54.0,46.0,30.14,WNW,290,13.0,28.0,76,-99.99,,,-99.99,,2013-04-02 11:22:00,
2013-04-02 04:32:00,54.0,46.0,30.14,WNW,290,13.0,28.0,76,-99.99,,,-99.99,,2013-04-02 11:32:00,
2013-04-02 04:42:00,54.0,46.0,30.14,WNW,290,16.0,27.0,76,-99.99,,,-99.99,,2013-04-02 11:42:00,
2013-04-02 04:52:00,54.0,46.0,30.14,WNW,290,16.0,27.0,76,-99.99,,,-99.99,,2013-04-02 11:52:00,
2013-04-02 05:12:00,54.0,46.0,30.14,WNW,290,14.0,22.0,76,-99.99,,,-99.99,,2013-04-02 12:12:00,
2013-04-02 05:22:00,54.0,46.0,30.14,WNW,290,14.0,22.0,76,-99.99,,,-99.99,,2013-04-02 12:22:00,
2013-04-02 05:32:00,54.0,46.0,30.14,WNW,290,14.0,22.0,76,-99.99,,,-99.99,,2013-04-02 12:32:00,
2013-04-02 05:42:00,54.0,46.0,30.14,WNW,290,14.0,23.0,76,-99.99,,,-99.99,,2013-04-02 12:42:00,
2013-04-02 05:52:00,54.0,46.0,30.14,WNW,290,14.0,23.0,76,-99.99,,,-99.99,,2013-04-02 12:52:00,
2013-04-02 06:12:00,54.0,46.0,30.15,WNW,290,15.0,25.0,76,-99.99,,,-99.99,,2013-04-02 13:12:00,
2013-04-02 06:22:00,54.0,46.0,30.15,WNW,290,15.0,25.0,76,-99.99,,,-99.99,,2013-04-02 13:22:00,
2013-04-02 06:32:00,54.0,46.0,30.15,WNW,290,15.0,25.0,76,-99.99,,,-99.99,,2013-04-02 13:32:00,
2013-04-02 06:42:00,52.0,46.0,30.15,WNW,300,14.0,23.0,81,-99.99,,,-99.99,,2013-04-02 13:42:00,
2013-04-02 06:52:00,52.0,46.0,30.15,WNW,300,14.0,23.0,81,-99.99,,,-99.99,,2013-04-02 13:52:00,
2013-04-02 07:52:00,52.0,46.0,30.16,NW,310,16.0,25.0,81,-99.99,,,-99.99,,2013-04-02 14:52:00,
2013-04-02 08:11:00,52.0,46.0,30.16,WNW,300,16.0,29.0,81,-99.99,,,-99.99,,2013-04-02 15:11:00,
2013-04-02 08:22:00,52.0,46.0,30.16,WNW,300,16.0,29.0,81,-99.99,,,-99.99,,2013-04-02 15:22:00,
2013-04-02 08:33:00,52.0,46.0,30.16,WNW,300,16.0,29.0,81,-99.99,,,-99.99,,2013-04-02 15:33:00,
2013-04-02 08:42:00,52.0,46.0,30.16,WNW,290,13.0,31.0,81,-99.99,,,-99.99,,2013-04-02 15:42:00,
2013-04-02 08:54:00,52.0,46.0,30.16,WNW,290,13.0,31.0,81,-99.99,,,-99.99,,2013-04-02 15:54:00,
2013-04-02 09:13:00,54.0,46.0,30.17,WNW,290,14.0,23.0,76,-99.99,,,-99.99,,2013-04-02 16:13:00,
2013-04-02 09:24:00,54.0,46.0,30.17,WNW,290,14.0,23.0,76,-99.99,,,-99.99,,2013-04-02 16:24:00,
2013-04-02 09:34:00,54.0,46.0,30.17,WNW,290,14.0,23.0,76,-99.99,,,-99.99,,2013-04-02 16:34:00,
2013-04-02 09:43:00,52.0,46.0,30.17,WNW,290,16.0,25.0,81,-99.99,,,-99.99,,2013-04-02 16:43:00,
2013-04-02 09:52:00,52.0,46.0,30.17,WNW,290,16.0,25.0,81,-99.99,,,-99.99,,2013-04-02 16:52:00,
2013-04-02 10:13:00,54.0,45.0,30.17,WNW,300,13.0,21.0,71,-99.99,,,-99.99,,2013-04-02 17:13:00,
2013-04-02 10:24:00,54.0,45.0,30.17,WNW,300,13.0,21.0,71,-99.99,,,-99.99,,2013-04-02 17:24:00,
2013-04-02 10:34:00,54.0,45.0,30.17,WNW,300,13.0,21.0,71,-99.99,,,-99.99,,2013-04-02 17:34:00,
2013-04-02 10:43:00,54.0,46.0,30.17,WNW,300,12.0,20.0,76,-99.99,,,-99.99,,2013-04-02 17:43:00,
2013-04-02 10:53:00,54.0,46.0,30.17,WNW,300,12.0,20.0,76,-99.99,,,-99.99,,2013-04-02 17:53:00,
2013-04-02 11:12:00,57.0,46.0,30.16,NW,310,14.0,22.0,67,-99.99,,,-99.99,,2013-04-02 18:12:00,
2013-04-02 11:23:00,57.0,46.0,30.16,NW,310,14.0,22.0,67,-99.99,,,-99.99,,2013-04-02 18:23:00,
2013-04-02 11:33:00,57.0,46.0,30.16,NW,310,14.0,22.0,67,-99.99,,,-99.99,,2013-04-02 18:33:00,
2013-04-02 11:42:00,59.0,46.0,30.16,WNW,300,10.0,20.0,62,-99.99,,,-99.99,,2013-04-02 18:42:00,
2013-04-02 11:53:00,59.0,46.0,30.16,WNW,300,10.0,20.0,62,-99.99,,,-99.99,,2013-04-02 18:53:00,
2013-04-02 12:13:00,61.0,48.0,30.16,WNW,300,10.0,23.0,63,-99.99,,,-99.99,,2013-04-02 19:13:00,
2013-04-02 12:22:00,61.0,48.0,30.16,WNW,300,10.0,23.0,63,-99.99,,,-99.99,,2013-04-02 19:22:00,
2013-04-02 12:33:00,61.0,48.0,30.16,WNW,300,10.0,23.0,63,-99.99,,,-99.99,,2013-04-02 19:33:00,
2013-04-02 12:46:00,61.0,46.0,30.14,NW,310,16.0,25.0,59,-99.99,,,-99.99,,2013-04-02 19:46:00,
2013-04-02 12:55:00,61.0,46.0,30.14,NW,310,16.0,25.0,59,-99.99,,,-99.99,,2013-04-02 19:55:00,
2013-04-02 13:03:00,61.0,46.0,30.14,NW,310,16.0,25.0,59,-99.99,,,-99.99,,2013-04-02 20:03:00,
2013-04-02 13:12:00,61.0,48.0,30.14,WNW,290,14.0,25.0,63,-99.99,,,-99.99,,2013-04-02 20:12:00,
2013-04-02 13:22:00,61.0,48.0,30.14,WNW,290,14.0,25.0,63,-99.99,,,-99.99,,2013-04-02 20:22:00,
2013-04-02 13:33:00,61.0,48.0,30.14,WNW,290,14.0,25.0,63,-99.99,,,-99.99,,2013-04-02 20:33:00,
2013-04-02 13:43:00,63.0,48.0,30.13,WNW,290,18.0,29.0,59,-99.99,,,-99.99,,2013-04-02 20:43:00,
2013-04-02 13:53:00,63.0,48.0,30.13,WNW,290,18.0,29.0,59,-99.99,,,-99.99,,2013-04-02 20:53:00,
2013-04-02 14:13:00,63.0,46.0,30.14,WNW,290,17.0,30.0,55,-99.99,,,-99.99,,2013-04-02 21:13:00,
2013-04-02 14:23:00,63.0,46.0,30.14,WNW,290,17.0,30.0,55,-99.99,,,-99.99,,2013-04-02 21:23:00,
2013-04-02 14:33:00,63.0,46.0,30.14,WNW,290,17.0,30.0,55,-99.99,,,-99.99,,2013-04-02 21:33:00,
2013-04-02 14:44:00,63.0,46.0,30.14,WNW,300,18.0,32.0,55,-99.99,,,-99.99,,2013-04-02 21:44:00,
2013-04-02 14:55:00,63.0,46.0,30.14,WNW,300,18.0,32.0,55,-99.99,,,-99.99,,2013-04-02 21:55:00,
2013-04-02 15:03:00,63.0,46.0,30.14,WNW,300,18.0,32.0,55,-99.99,,,-99.99,,2013-04-02 22:03:00,
2013-04-02 15:13:00,63.0,46.0,30.14,WNW,300,20.0,29.0,55,-99.99,,,-99.99,,2013-04-02 22:13:00,
2013-04-02 15:23:00,63.0,46.0,30.14,WNW,300,20.0,29.0,55,-99.99,,,-99.99,,2013-04-02 22:23:00,
2013-04-02 15:33:00,63.0,46.0,30.14,WNW,300,20.0,29.0,55,-99.99,,,-99.99,,2013-04-02 22:33:00,
2013-04-02 15:43:00,63.0,46.0,30.14,WNW,300,15.0,24.0,55,-99.99,,,-99.99,,2013-04-02 22:43:00,
2013-04-02 15:53:00,63.0,46.0,30.14,WNW,300,15.0,24.0,55,-99.99,,,-99.99,,2013-04-02 22:53:00,
2013-04-02 16:12:00,64.0,46.0,30.14,WNW,300,16.0,27.0,52,-99.99,,,-99.99,,2013-04-02 23:12:00,
2013-04-02 16:23:00,64.0,46.0,30.14,WNW,300,16.0,27.0,52,-99.99,,,-99.99,,2013-04-02 23:23:00,
2013-04-02 16:33:00,64.0,46.0,30.14,WNW,300,16.0,27.0,52,-99.99,,,-99.99,,2013-04-02 23:33:00,
2013-04-02 16:42:00,64.0,46.0,30.13,WNW,300,16.0,27.0,52,-99.99,,,-99.99,,2013-04-02 23:42:00,
2013-04-02 16:52:00,64.0,46.0,30.13,WNW,300,16.0,27.0,52,-99.99,,,-99.99,,2013-04-02 23:52:00,
2013-04-02 17:13:00,63.0,45.0,30.14,West,280,14.0,27.0,51,-99.99,,,-99.99,,2013-04-03 00:13:00,
2013-04-02 17:23:00,63.0,45.0,30.14,West,280,14.0,27.0,51,-99.99,,,-99.99,,2013-04-03 00:23:00,
2013-04-02 17:32:00,63.0,45.0,30.14,West,280,14.0,27.0,51,-99.99,,,-99.99,,2013-04-03 00:32:00,
2013-04-02 17:44:00,63.0,45.0,30.13,WNW,300,13.0,21.0,51,-99.99,,,-99.99,,2013-04-03 00:44:00,
2013-04-02 17:53:00,63.0,45.0,30.13,WNW,300,13.0,21.0,51,-99.99,,,-99.99,,2013-04-03 00:53:00,
2013-04-02 18:12:00,63.0,45.0,30.12,WNW,300,13.0,20.0,51,-99.99,,,-99.99,,2013-04-03 01:12:00,
2013-04-02 18:22:00,63.0,45.0,30.12,WNW,300,13.0,20.0,51,-99.99,,,-99.99,,2013-04-03 01:22:00,
2013-04-02 18:33:00,63.0,45.0,30.12,WNW,300,13.0,20.0,51,-99.99,,,-99.99,,2013-04-03 01:33:00,
2013-04-02 18:42:00,61.0,45.0,30.12,WNW,300,12.0,22.0,55,-99.99,,,-99.99,,2013-04-03 01:42:00,
2013-04-02 18:52:00,61.0,45.0,30.12,WNW,300,12.0,22.0,55,-99.99,,,-99.99,,2013-04-03 01:52:00,
2013-04-02 19:13:00,61.0,45.0,30.11,WNW,300,8.0,-999.0,55,-99.99,,,-99.99,,2013-04-03 02:13:00,
2013-04-02 19:23:00,61.0,45.0,30.11,WNW,300,8.0,-999.0,55,-99.99,,,-99.99,,2013-04-03 02:23:00,
2013-04-02 19:33:00,61.0,45.0,30.11,WNW,300,8.0,-999.0,55,-99.99,,,-99.99,,2013-04-03 02:33:00,
2013-04-02 19:43:00,59.0,45.0,30.11,WNW,300,7.0,-999.0,58,-99.99,,,-99.99,,2013-04-03 02:43:00,
2013-04-02 19:52:00,59.0,45.0,30.11,WNW,300,7.0,-999.0,58,-99.99,,,-99.99,,2013-04-03 02:52:00,
2013-04-02 20:13:00,59.0,45.0,30.11,WNW,290,7.0,-999.0,58,-99.99,,,-99.99,,2013-04-03 03:13:00,
2013-04-02 20:22:00,59.0,45.0,30.11,WNW,290,7.0,-999.0,58,-99.99,,,-99.99,,2013-04-03 03:22:00,
2013-04-02 20:35:00,59.0,45.0,30.11,WNW,290,7.0,-999.0,58,-99.99,,,-99.99,,2013-04-03 03:35:00,
2013-04-02 20:43:00,57.0,45.0,30.11,WNW,290,8.0,-999.0,62,-99.99,,,-99.99,,2013-04-03 03:43:00,
2013-04-02 20:53:00,57.0,45.0,30.11,WNW,290,8.0,-999.0,62,-99.99,,,-99.99,,2013-04-03 03:53:00,
2013-04-02 21:12:00,57.0,45.0,30.12,WNW,290,6.0,-999.0,62,-99.99,,,-99.99,,2013-04-03 04:12:00,
2013-04-02 21:23:00,57.0,45.0,30.12,WNW,290,6.0,-999.0,62,-99.99,,,-99.99,,2013-04-03 04:23:00,
2013-04-02 21:32:00,57.0,45.0,30.12,WNW,290,6.0,-999.0,62,-99.99,,,-99.99,,2013-04-03 04:32:00,
2013-04-02 21:42:00,55.0,45.0,30.13,WNW,290,8.0,-999.0,66,-99.99,,,-99.99,,2013-04-03 04:42:00,
2013-04-02 21:53:00,55.0,45.0,30.13,WNW,290,8.0,-999.0,66,-99.99,,,-99.99,,2013-04-03 04:53:00,
2013-04-02 22:12:00,54.0,45.0,30.14,WNW,290,6.0,-999.0,71,-99.99,,,-99.99,,2013-04-03 05:12:00,
2013-04-02 22:22:00,54.0,45.0,30.14,WNW,290,6.0,-999.0,71,-99.99,,,-99.99,,2013-04-03 05:22:00,
2013-04-02 22:32:00,54.0,45.0,30.14,WNW,290,6.0,-999.0,71,-99.99,,,-99.99,,2013-04-03 05:32:00,
2013-04-02 22:42:00,54.0,45.0,30.14,West,280,5.0,-999.0,71,-99.99,,,-99.99,,2013-04-03 05:42:00,
2013-04-02 22:52:00,54.0,45.0,30.14,West,280,5.0,-999.0,71,-99.99,,,-99.99,,2013-04-03 05:52:00,
2013-04-02 23:12:00,54.0,45.0,30.13,West,280,5.0,-999.0,71,-99.99,,,-99.99,,2013-04-03 06:12:00,
2013-04-02 23:22:00,54.0,45.0,30.13,West,280,5.0,-999.0,71,-99.99,,,-99.99,,2013-04-03 06:22:00,
2013-04-02 23:32:00,54.0,45.0,30.13,West,280,5.0,-999.0,71,-99.99,,,-99.99,,2013-04-03 06:32:00,
2013-04-02 23:42:00,54.0,45.0,30.13,WNW,290,6.0,-999.0,71,-99.99,,,-99.99,,2013-04-03 06:42:00,
2013-04-02 23:52:00,54.0,45.0,30.13,WNW,290,6.0,-999.0,71,-99.99,,,-99.99,,2013-04-03 06:52:00,